Time;durP1;ratioP1;P1;durP2;ratioP2;P2;SDS_P1;SDS_P2;PMS_P1;PMS_P2;Temp;Humidity;BMP_temperature;BMP_pressure;BME280_temperature;BME280_humidity;BME280_pressure;Samples;Min_cycle;Max_cycle;Signal;HPM_P1;HPM_P2
2023/06/26 00:02:25;;;;;;;9.23;5.10;;;;;;;23.72;48.84;99451.72;4304083;33;33660;-59
2023/06/26 00:04:53;;;;;;;13.85;4.55;;;;;;;23.71;48.94;99456.34;4312251;33;33274;-59
2023/06/26 00:07:21;;;;;;;10.77;4.00;;;;;;;23.75;48.82;99443.13;4309975;33;33836;-59
2023/06/26 00:09:48;;;;;;;7.47;3.70;;;;;;;23.60;49.37;99458.84;4306681;33;34995;-59
2023/06/26 00:12:16;;;;;;;6.78;3.87;;;;;;;23.56;49.30;99447.44;4303956;33;37130;-59
2023/06/26 00:14:44;;;;;;;8.60;4.43;;;;;;;23.49;49.43;99449.31;4320438;33;33470;-59
2023/06/26 00:17:11;;;;;;;10.52;4.68;;;;;;;23.55;49.30;99447.66;4313392;33;33653;-59
2023/06/26 00:19:39;;;;;;;7.62;4.65;;;;;;;23.58;49.44;99444.53;4312886;33;33885;-59
2023/06/26 00:22:06;;;;;;;9.23;4.05;;;;;;;23.58;49.55;99450.00;4314675;33;34607;-59
2023/06/26 00:24:34;;;;;;;10.52;4.53;;;;;;;23.52;49.75;99450.81;4322546;33;34396;-59
2023/06/26 00:27:03;;;;;;;7.50;3.78;;;;;;;23.47;49.75;99444.09;4314554;33;33615;-59
2023/06/26 00:29:30;;;;;;;5.37;3.47;;;;;;;23.43;49.92;99445.53;4318679;32;33846;-59
2023/06/26 00:31:58;;;;;;;8.30;4.55;;;;;;;23.46;49.72;99442.38;4355161;32;33484;-59
2023/06/26 00:34:26;;;;;;;5.85;3.53;;;;;;;23.42;49.81;99445.75;4345088;32;33591;-59
2023/06/26 00:36:53;;;;;;;9.30;4.93;;;;;;;23.40;49.78;99454.16;4345154;32;33760;-59
2023/06/26 00:39:21;;;;;;;7.10;4.68;;;;;;;23.29;49.89;99452.00;4348934;32;33796;-59
2023/06/26 00:41:48;;;;;;;10.07;5.03;;;;;;;23.32;49.74;99454.31;4347502;32;33919;-59
2023/06/26 00:44:17;;;;;;;9.40;4.47;;;;;;;23.12;50.07;99448.78;4350034;32;33458;-59
2023/06/26 00:46:45;;;;;;;10.45;5.47;;;;;;;23.19;49.89;99448.81;4348358;32;34001;-59
2023/06/26 00:49:13;;;;;;;6.60;3.90;;;;;;;23.17;49.82;99449.00;4343992;32;33824;-59
2023/06/26 00:51:41;;;;;;;8.98;5.53;;;;;;;23.20;49.76;99445.88;4358044;32;34916;-59
2023/06/26 00:54:09;;;;;;;8.43;4.57;;;;;;;23.15;49.80;99445.66;4357863;32;33344;-59
2023/06/26 00:56:37;;;;;;;11.52;5.15;;;;;;;23.16;49.77;99438.28;4353326;32;33575;-59
2023/06/26 00:59:05;;;;;;;8.88;4.20;;;;;;;23.22;49.49;99446.50;4353028;32;35198;-59
2023/06/26 01:01:32;;;;;;;8.30;4.47;;;;;;;23.21;49.38;99446.69;4358707;32;33937;-59
2023/06/26 01:04:00;;;;;;;7.32;3.80;;;;;;;23.25;49.30;99442.53;4346857;32;33296;-59
2023/06/26 01:06:31;;;;;;;8.25;4.37;;;;;;;23.25;49.48;99443.38;4351165;32;34580;-59
2023/06/26 01:08:59;;;;;;;6.45;3.60;;;;;;;23.25;49.39;99437.91;4348217;32;33737;-59
2023/06/26 01:11:27;;;;;;;7.87;4.95;;;;;;;23.22;49.41;99438.31;4352140;32;34232;-59
2023/06/26 01:13:56;;;;;;;12.45;4.55;;;;;;;23.22;49.35;99432.03;4349696;32;33513;-59
2023/06/26 01:16:24;;;;;;;8.48;4.80;;;;;;;23.15;49.22;99431.16;4342155;32;34796;-59
2023/06/26 01:18:52;;;;;;;8.63;4.70;;;;;;;23.15;49.01;99422.97;4339261;32;33961;-59
2023/06/26 01:21:20;;;;;;;9.52;4.97;;;;;;;22.90;49.46;99425.34;4351800;32;35120;-59
2023/06/26 01:24:04;;;;;;;7.70;4.62;;;;;;;22.77;49.71;99416.03;4330532;33;33464;-59
2023/06/26 01:26:36;;;;;;;7.70;4.30;;;;;;;22.65;50.00;99416.81;4345276;32;34136;-61
2023/06/26 01:29:06;;;;;;;8.27;3.95;;;;;;;22.63;49.97;99418.88;4346055;32;34111;-59
2023/06/26 01:31:34;;;;;;;8.52;4.93;;;;;;;22.65;49.75;99411.34;4336336;32;33678;-59
2023/06/26 01:34:02;;;;;;;9.30;4.00;;;;;;;22.59;49.81;99417.59;4353911;32;34365;-59
2023/06/26 01:36:30;;;;;;;7.70;4.45;;;;;;;22.59;49.78;99414.87;4353284;32;33899;-59
2023/06/26 01:38:57;;;;;;;8.15;4.70;;;;;;;22.62;49.86;99411.75;4336423;32;33911;-59
2023/06/26 01:41:25;;;;;;;8.05;4.45;;;;;;;22.50;50.35;99417.78;4348879;32;34114;-59
2023/06/26 01:44:11;;;;;;;6.47;4.25;;;;;;;22.60;50.02;99402.91;4344043;32;33531;-58
2023/06/26 01:47:00;;;;;;;8.32;3.62;;;;;;;22.59;50.10;99409.41;4352454;32;33912;-59
2023/06/26 01:49:48;;;;;;;7.90;4.43;;;;;;;22.66;50.01;99413.03;4338754;32;34803;-59
2023/06/26 01:52:34;;;;;;;6.70;4.30;;;;;;;22.69;50.16;99410.72;4354923;32;33998;-59
2023/06/26 01:55:09;;;;;;;7.65;4.35;;;;;;;22.63;50.15;99407.97;4345528;32;34378;-59
2023/06/26 01:57:38;;;;;;;7.80;4.25;;;;;;;22.60;50.15;99413.81;4322048;33;33642;-58
2023/06/26 02:00:10;;;;;;;8.95;4.53;;;;;;;22.55;50.40;99414.44;4306386;33;33804;-58
2023/06/26 02:02:41;;;;;;;8.50;4.53;;;;;;;22.58;50.22;99419.50;4322388;33;35213;-59
2023/06/26 02:05:13;;;;;;;9.13;4.90;;;;;;;22.61;50.21;99421.00;4314377;33;33131;-59
2023/06/26 02:07:41;;;;;;;8.02;4.47;;;;;;;22.60;50.26;99413.81;4317504;33;33599;-59
2023/06/26 02:10:09;;;;;;;7.25;4.22;;;;;;;22.64;50.39;99405.06;4314836;33;34137;-59
2023/06/26 02:12:37;;;;;;;8.88;4.78;;;;;;;22.66;50.33;99413.87;4320710;33;34334;-59
2023/06/26 02:15:05;;;;;;;8.07;4.20;;;;;;;22.61;50.27;99412.81;4316039;33;34364;-59
2023/06/26 02:17:33;;;;;;;5.72;3.22;;;;;;;;;;4325278;33;32520;-59
2023/06/26 02:20:00;;;;;;;10.02;4.40;;;;;;;22.48;49.81;99413.56;4316211;33;35245;-59
2023/06/26 02:22:30;;;;;;;6.30;4.47;;;;;;;22.49;49.68;99415.25;4323818;33;33842;-58
2023/06/26 02:24:57;;;;;;;8.38;4.47;;;;;;;22.51;49.58;99413.16;4317728;33;33457;-59
2023/06/26 02:27:25;;;;;;;9.23;4.30;;;;;;;22.27;50.12;99412.56;4328100;33;33964;-59
2023/06/26 02:29:53;;;;;;;8.10;3.87;;;;;;;22.06;50.41;99412.59;4358978;32;33698;-59
2023/06/26 02:32:21;;;;;;;7.87;4.70;;;;;;;22.32;49.87;99420.16;4347021;32;34962;-59
2023/06/26 02:34:51;;;;;;;6.47;4.03;;;;;;;22.39;49.59;99423.78;4360586;32;33334;-59
2023/06/26 02:37:19;;;;;;;10.38;4.35;;;;;;;22.36;49.85;99423.31;4357713;32;34626;-58
2023/06/26 02:39:47;;;;;;;7.97;4.90;;;;;;;22.36;49.54;99435.06;4353128;32;34127;-58
2023/06/26 02:42:14;;;;;;;10.23;4.30;;;;;;;22.24;49.86;99434.75;4349900;32;33674;-59
2023/06/26 02:44:42;;;;;;;6.90;4.03;;;;;;;22.43;49.28;99430.50;4346096;32;33544;-59
2023/06/26 02:47:10;;;;;;;7.62;4.25;;;;;;;22.49;49.11;99423.41;4351261;32;33764;-59
2023/06/26 02:49:38;;;;;;;7.10;4.57;;;;;;;22.39;49.40;99433.84;4359635;32;33981;-59
2023/06/26 02:52:05;;;;;;;8.23;4.30;;;;;;;22.20;49.85;99429.91;4342796;32;33826;-59
2023/06/26 02:54:33;;;;;;;6.47;3.17;;;;;;;22.36;49.50;99432.34;4345316;32;33345;-58
2023/06/26 02:57:01;;;;;;;13.82;4.15;;;;;;;22.41;49.13;99429.87;4345249;32;33533;-59
2023/06/26 02:59:29;;;;;;;7.62;4.65;;;;;;;22.42;49.24;99434.28;4352525;32;33687;-59
2023/06/26 03:01:57;;;;;;;7.03;4.25;;;;;;;22.50;49.25;99436.00;4552818;27;33967;-61
2023/06/26 03:04:25;;;;;;;6.70;4.43;;;;;;;22.50;49.22;99433.28;4370895;32;34465;-61
2023/06/26 03:06:54;;;;;;;10.45;5.40;;;;;;;22.57;49.07;99434.19;4373117;32;34818;-61
2023/06/26 03:09:22;;;;;;;6.68;3.78;;;;;;;22.50;49.06;99428.69;4367587;32;33604;-61
2023/06/26 03:11:50;;;;;;;7.30;4.20;;;;;;;22.53;48.98;99436.44;4362347;32;34213;-61
2023/06/26 03:14:17;;;;;;;7.35;4.43;;;;;;;22.52;49.12;99436.66;4374031;32;34310;-61
2023/06/26 03:16:45;;;;;;;7.65;4.05;;;;;;;22.48;49.21;99427.19;4370259;32;33783;-61
2023/06/26 03:19:13;;;;;;;7.68;3.95;;;;;;;22.53;49.46;99436.44;4356175;32;33637;-61
2023/06/26 03:21:43;;;;;;;7.72;4.40;;;;;;;22.58;49.31;99440.47;4366707;32;32550;-61
2023/06/26 03:24:11;;;;;;;7.10;4.15;;;;;;;22.48;49.42;99441.66;4353651;32;33673;-61
2023/06/26 03:26:38;;;;;;;8.25;4.43;;;;;;;22.55;49.20;99449.91;4367461;32;34921;-61
2023/06/26 03:29:06;;;;;;;10.50;4.18;;;;;;;22.60;49.33;99452.00;4370972;32;33970;-61
2023/06/26 03:31:35;;;;;;;6.93;3.17;;;;;;;22.52;49.70;99447.56;4371441;32;35098;-61
2023/06/26 03:34:03;;;;;;;8.38;4.32;;;;;;;22.06;50.81;99454.31;4366463;32;33668;-61
2023/06/26 03:36:30;;;;;;;6.40;3.67;;;;;;;22.17;50.19;99452.13;4364317;32;33425;-61
2023/06/26 03:39:00;;;;;;;14.30;4.03;;;;;;;22.30;49.84;99449.50;4374899;32;33854;-61
2023/06/26 03:41:28;;;;;;;8.07;4.05;;;;;;;22.40;49.85;99441.81;4370949;32;33902;-61
2023/06/26 03:43:56;;;;;;;6.53;3.83;;;;;;;22.45;49.57;99444.78;4372665;32;35716;-61
2023/06/26 03:46:25;;;;;;;7.82;4.45;;;;;;;22.49;49.30;99447.97;4369505;32;33923;-61
2023/06/26 03:48:53;;;;;;;6.22;3.45;;;;;;;22.33;49.88;99449.94;4370078;32;35456;-61
2023/06/26 03:51:20;;;;;;;8.85;4.40;;;;;;;22.32;49.85;99447.44;4356918;32;34089;-60
2023/06/26 03:53:48;;;;;;;7.00;3.75;;;;;;;22.20;50.14;99451.72;4339522;33;33558;-61
2023/06/26 03:56:16;;;;;;;8.13;4.72;;;;;;;22.14;50.23;99457.94;4339456;33;33743;-62
2023/06/26 03:58:43;;;;;;;7.62;4.05;;;;;;;22.24;50.06;99455.72;4343219;32;34549;-61
2023/06/26 04:01:11;;;;;;;6.37;4.18;;;;;;;22.22;50.84;99455.09;4339955;32;33631;-61
2023/06/26 04:03:39;;;;;;;9.25;4.00;;;;;;;22.50;50.16;99455.97;4335129;33;33510;-62
2023/06/26 04:06:07;;;;;;;6.82;4.20;;;;;;;22.60;49.72;99454.72;4344591;32;33603;-62
2023/06/26 04:08:34;;;;;;;6.90;3.47;;;;;;;22.72;49.48;99455.88;4343090;33;33962;-61
2023/06/26 04:11:02;;;;;;;7.22;3.80;;;;;;;22.77;49.49;99458.84;4340961;33;35117;-60
2023/06/26 04:13:29;;;;;;;6.43;3.87;;;;;;;22.89;49.22;99462.72;4338465;33;33459;-61
2023/06/26 04:15:57;;;;;;;6.10;3.05;;;;;;;22.84;49.35;99456.16;4341787;33;33615;-61
2023/06/26 04:18:25;;;;;;;7.55;4.15;;;;;;;22.73;49.45;99452.97;4340501;32;33917;-61
2023/06/26 04:21:12;;;;;;;6.95;4.25;;;;;;;22.79;49.11;99463.06;4341219;32;36376;-61
2023/06/26 04:23:40;;;;;;;7.10;3.65;;;;;;;22.84;48.98;99461.63;4336186;33;33555;-61
2023/06/26 04:26:08;;;;;;;12.35;3.90;;;;;;;22.89;48.98;99456.38;4370298;32;34742;-61
2023/06/26 04:28:36;;;;;;;8.55;4.03;;;;;;;22.85;49.22;99455.09;4370086;32;34346;-61
2023/06/26 04:31:04;;;;;;;6.22;4.00;;;;;;;23.00;48.81;99459.44;4373039;32;34940;-61
2023/06/26 04:33:31;;;;;;;9.00;5.03;;;;;;;23.04;49.41;99464.47;4372445;32;33733;-62
2023/06/26 04:35:59;;;;;;;8.70;4.87;;;;;;;23.17;49.45;99459.91;4367632;32;34978;-61
2023/06/26 04:38:27;;;;;;;6.97;4.70;;;;;;;23.24;48.83;99460.81;4367867;32;33814;-61
2023/06/26 04:40:54;;;;;;;8.65;3.70;;;;;;;23.44;47.94;99462.78;4373419;32;34142;-62
2023/06/26 04:43:22;;;;;;;9.30;5.20;;;;;;;23.51;47.80;99468.25;4369199;32;34554;-61
2023/06/26 04:45:50;;;;;;;10.52;5.00;;;;;;;23.54;47.65;99463.22;4377917;32;33772;-62
2023/06/26 04:48:17;;;;;;;15.82;5.37;;;;;;;23.60;47.77;99464.31;4376602;32;34108;-62
2023/06/26 04:50:52;;;;;;;8.95;4.18;;;;;;;23.60;47.83;99464.31;4372929;32;34276;-62
2023/06/26 04:53:23;;;;;;;8.18;4.40;;;;;;;23.66;47.96;99474.41;4370858;32;33204;-62
2023/06/26 04:55:51;;;;;;;10.45;4.72;;;;;;;23.75;47.68;99467.72;4370593;32;33596;-62
2023/06/26 04:58:19;;;;;;;6.78;3.80;;;;;;;23.88;47.34;99467.75;4373075;32;33835;-61
2023/06/26 05:00:46;;;;;;;7.22;3.85;;;;;;;24.05;47.33;99467.34;4363865;32;34999;-62
2023/06/26 05:03:16;;;;;;;7.15;4.32;;;;;;;24.20;47.10;99470.72;4372260;32;33102;-62
2023/06/26 05:05:45;;;;;;;8.32;4.72;;;;;;;24.29;47.17;99474.09;4362522;32;35025;-62
2023/06/26 05:08:22;;;;;;;6.15;3.85;;;;;;;24.37;46.90;99472.00;4371898;32;35127;-62
2023/06/26 05:10:50;;;;;;;8.73;4.93;;;;;;;24.50;46.73;99473.06;4366805;32;33839;-61
2023/06/26 05:13:19;;;;;;;8.05;4.80;;;;;;;24.56;46.75;99470.34;4370154;32;34461;-62
2023/06/26 05:15:46;;;;;;;7.62;4.55;;;;;;;24.62;46.71;99469.47;4365330;32;35022;-62
2023/06/26 05:18:14;;;;;;;9.20;4.57;;;;;;;24.76;46.76;99464.81;4370240;32;34883;-62
2023/06/26 05:20:42;;;;;;;5.90;3.85;;;;;;;24.55;48.30;99465.06;4375344;32;34054;-62
2023/06/26 05:23:12;;;;;;;7.47;4.65;;;;;;;24.66;48.74;99467.16;4374955;32;33769;-62
2023/06/26 05:25:40;;;;;;;10.10;4.53;;;;;;;24.76;48.23;99466.72;4373800;32;33625;-62
2023/06/26 05:28:10;;;;;;;7.57;4.43;;;;;;;24.95;47.50;99463.09;4368918;32;34437;-62
2023/06/26 05:30:38;;;;;;;8.32;4.45;;;;;;;25.10;46.54;99454.59;4365833;32;34463;-62
2023/06/26 05:33:06;;;;;;;8.07;5.30;;;;;;;25.08;47.58;99468.53;4373165;32;33748;-61
2023/06/26 05:35:36;;;;;;;9.77;4.97;;;;;;;25.41;46.73;99461.25;4352427;32;33775;-62
2023/06/26 05:38:04;;;;;;;8.63;4.87;;;;;;;25.62;46.53;99465.56;4368634;32;33936;-62
2023/06/26 05:40:31;;;;;;;8.85;4.45;;;;;;;25.63;46.62;99467.28;4356736;32;34491;-62
2023/06/26 05:42:59;;;;;;;13.25;5.70;;;;;;;25.62;46.32;99469.19;4374104;32;32210;-62
2023/06/26 05:45:27;;;;;;;9.15;5.03;;;;;;;26.00;45.00;99465.56;4363459;32;34661;-62
2023/06/26 05:47:54;;;;;;;7.07;4.78;;;;;;;26.25;44.63;99462.84;4366827;32;33951;-62
2023/06/26 05:50:23;;;;;;;10.88;5.93;;;;;;;26.33;44.69;99459.00;4371459;32;34267;-62
2023/06/26 05:52:51;;;;;;;8.68;4.62;;;;;;;26.35;44.89;99467.84;4370244;32;33571;-62
2023/06/26 05:55:19;;;;;;;9.85;5.20;;;;;;;26.47;45.21;99463.31;4371534;32;33674;-62
2023/06/26 05:57:47;;;;;;;9.50;5.00;;;;;;;26.07;46.44;99462.78;4366727;32;33921;-62
2023/06/26 06:00:15;;;;;;;11.50;5.28;;;;;;;26.34;45.60;99460.69;4369828;32;35125;-62
2023/06/26 06:02:43;;;;;;;9.95;4.93;;;;;;;26.44;45.70;99455.53;4370574;32;33333;-62
2023/06/26 06:05:10;;;;;;;7.57;4.12;;;;;;;26.38;45.42;99461.91;4374429;32;33814;-62
2023/06/26 06:07:38;;;;;;;8.38;4.72;;;;;;;26.66;44.77;99459.56;4372201;32;33892;-62
2023/06/26 06:10:06;;;;;;;8.75;4.30;;;;;;;26.56;44.98;99459.25;4365112;32;34036;-62
2023/06/26 06:12:34;;;;;;;11.15;5.65;;;;;;;26.51;43.74;99459.06;4372636;32;33422;-62
2023/06/26 06:15:01;;;;;;;12.80;5.70;;;;;;;26.00;46.39;99460.97;4375771;32;34046;-62
2023/06/26 06:17:30;;;;;;;8.23;5.40;;;;;;;25.90;47.83;99470.72;4357123;32;34243;-62
2023/06/26 06:19:57;;;;;;;8.65;4.80;;;;;;;25.87;46.84;99471.16;4368213;32;34462;-62
2023/06/26 06:22:25;;;;;;;6.85;4.43;;;;;;;25.72;47.20;99472.28;4366265;32;33398;-62
2023/06/26 06:24:53;;;;;;;7.07;4.40;;;;;;;26.04;46.34;99466.84;4375278;32;33868;-63
2023/06/26 06:27:20;;;;;;;9.32;5.53;;;;;;;26.48;44.48;99475.97;4368911;32;35313;-62
2023/06/26 06:29:48;;;;;;;8.57;4.85;;;;;;;26.73;43.69;99470.47;4366389;32;33742;-63
2023/06/26 06:32:16;;;;;;;8.50;5.45;;;;;;;26.63;43.54;99471.00;4362938;32;34466;-62
2023/06/26 06:34:43;;;;;;;8.93;4.93;;;;;;;26.86;43.41;99466.75;4356744;32;34490;-62
2023/06/26 06:37:11;;;;;;;8.65;4.80;;;;;;;26.58;43.46;99467.25;4373256;32;35247;-62
2023/06/26 06:39:39;;;;;;;9.80;5.18;;;;;;;26.75;42.72;99471.09;4371519;32;34084;-63
2023/06/26 06:42:06;;;;;;;8.73;4.40;;;;;;;26.75;42.87;99473.00;4370557;32;33313;-62
2023/06/26 06:44:34;;;;;;;8.93;5.20;;;;;;;26.60;43.93;99481.59;4368761;32;33702;-62
2023/06/26 06:47:02;;;;;;;10.07;4.45;;;;;;;26.61;44.06;99473.16;4371234;32;35718;-63
2023/06/26 06:49:29;;;;;;;9.13;5.07;;;;;;;26.62;44.24;99479.47;4363211;32;34211;-61
2023/06/26 06:51:57;;;;;;;8.55;4.95;;;;;;;26.86;43.66;99469.50;4362751;32;33170;-62
2023/06/26 06:54:27;;;;;;;7.62;4.68;;;;;;;27.09;44.30;99464.16;4371513;32;34699;-62
2023/06/26 06:56:54;;;;;;;9.75;4.95;;;;;;;27.17;43.16;99466.66;4371834;32;33907;-62
2023/06/26 06:59:22;;;;;;;8.35;4.10;;;;;;;27.28;42.53;99473.28;4368088;32;34013;-62
2023/06/26 07:01:50;;;;;;;9.10;4.55;;;;;;;27.52;42.09;99467.91;4356455;32;33555;-61
2023/06/26 07:04:17;;;;;;;10.55;4.75;;;;;;;27.47;41.03;99471.34;4362002;32;34638;-61
2023/06/26 07:06:45;;;;;;;8.27;4.35;;;;;;;27.43;40.40;99472.88;4350074;32;35990;-61
2023/06/26 07:09:12;;;;;;;7.80;4.80;;;;;;;26.97;41.14;99465.16;4366893;32;34209;-61
2023/06/26 07:11:40;;;;;;;9.98;4.95;;;;;;;27.28;41.43;99465.03;4366922;32;33346;-61
2023/06/26 07:14:07;;;;;;;11.23;4.72;;;;;;;27.26;41.58;99467.19;4364633;32;33786;-61
2023/06/26 07:16:35;;;;;;;8.02;4.55;;;;;;;27.49;41.85;99469.22;4369628;32;33681;-61
2023/06/26 07:19:03;;;;;;;10.95;5.15;;;;;;;27.54;41.05;99466.59;4371579;32;35128;-61
2023/06/26 07:21:30;;;;;;;6.85;4.28;;;;;;;27.06;42.09;99464.66;4368004;32;33759;-61
2023/06/26 07:23:58;;;;;;;8.70;4.50;;;;;;;27.34;40.78;99461.34;4369034;32;34582;-60
2023/06/26 07:26:25;;;;;;;9.35;4.43;;;;;;;27.34;38.71;99463.28;4370829;32;34846;-61
2023/06/26 07:29:11;;;;;;;7.85;4.68;;;;;;;27.30;39.37;99454.66;4361024;32;34229;-61
2023/06/26 07:31:38;;;;;;;9.50;4.37;;;;;;;27.68;39.94;99459.03;4360191;32;32322;-60
2023/06/26 07:34:06;;;;;;;7.75;5.00;;;;;;;27.70;39.13;99461.53;4368517;32;33486;-60
2023/06/26 07:36:34;;;;;;;11.15;5.28;;;;;;;27.39;38.83;99456.03;4363041;32;34113;-60
2023/06/26 07:39:01;;;;;;;8.73;5.30;;;;;;;27.51;39.31;99460.72;4367546;32;34289;-60
2023/06/26 07:41:31;;;;;;;9.68;5.22;;;;;;;27.83;39.98;99462.22;4368432;32;33646;-60
2023/06/26 07:43:59;;;;;;;9.45;4.50;;;;;;;27.82;40.18;99470.69;4363293;32;34018;-61
2023/06/26 07:46:26;;;;;;;9.90;4.68;;;;;;;27.99;39.68;99459.84;4371471;32;33941;-62
2023/06/26 07:48:54;;;;;;;7.50;3.70;;;;;;;28.18;40.00;99466.94;4365170;32;33662;-62
2023/06/26 07:51:22;;;;;;;7.95;4.95;;;;;;;28.32;38.75;99468.44;4372887;32;33304;-61
2023/06/26 07:53:49;;;;;;;8.25;4.78;;;;;;;28.15;38.23;99466.59;4370744;32;33749;-62
2023/06/26 07:56:17;;;;;;;9.27;5.47;;;;;;;27.72;38.27;99470.38;4371806;32;33716;-62
2023/06/26 07:58:45;;;;;;;6.43;4.03;;;;;;;28.11;37.43;99471.72;4364913;32;32565;-61
2023/06/26 08:01:12;;;;;;;9.18;4.57;;;;;;;27.82;38.36;99470.69;4367647;32;33190;-61
2023/06/26 08:03:41;;;;;;;16.42;5.37;;;;;;;27.90;37.71;99470.38;4367785;32;34632;-61
2023/06/26 08:06:09;;;;;;;8.57;4.00;;;;;;;27.71;37.98;99475.06;4357078;32;33409;-61
2023/06/26 08:08:39;;;;;;;10.55;5.53;;;;;;;27.76;39.07;99466.09;4362895;32;33906;-61
2023/06/26 08:11:07;;;;;;;9.75;5.25;;;;;;;27.58;38.99;99472.50;4361957;32;35243;-61
2023/06/26 08:13:34;;;;;;;9.93;5.32;;;;;;;27.91;38.29;99469.28;4358981;32;33575;-61
2023/06/26 08:16:02;;;;;;;7.87;3.95;;;;;;;27.72;37.91;99473.13;4370180;32;33692;-61
2023/06/26 08:18:29;;;;;;;10.63;5.20;;;;;;;28.04;37.68;99468.25;4362068;32;33983;-61
2023/06/26 08:20:57;;;;;;;9.95;5.03;;;;;;;27.96;37.85;99471.31;4374523;32;34765;-61
2023/06/26 08:23:24;;;;;;;8.32;5.82;;;;;;;27.85;38.32;99475.72;4375522;32;33554;-61
2023/06/26 08:25:53;;;;;;;9.65;5.28;;;;;;;27.72;39.64;99475.87;4360243;32;33769;-61
2023/06/26 08:28:21;;;;;;;7.43;4.82;;;;;;;28.16;38.86;99482.03;4371895;32;32929;-61
2023/06/26 08:30:48;;;;;;;9.80;5.53;;;;;;;28.09;39.11;99474.72;4368597;32;34634;-61
2023/06/26 08:33:16;;;;;;;10.23;4.25;;;;;;;27.82;39.46;99468.78;4364965;32;34602;-61
2023/06/26 08:35:43;;;;;;;7.12;4.40;;;;;;;28.00;37.59;99478.06;4369539;32;35041;-61
2023/06/26 08:38:11;;;;;;;6.32;4.32;;;;;;;28.22;37.87;99470.94;4372733;32;34420;-61
2023/06/26 08:40:39;;;;;;;6.80;4.55;;;;;;;28.13;38.16;99477.84;4359239;32;33737;-61
2023/06/26 08:43:06;;;;;;;14.05;4.68;;;;;;;27.80;37.61;99467.31;4368723;32;33724;-61
2023/06/26 08:45:35;;;;;;;6.47;4.28;;;;;;;28.06;37.86;99469.69;4363601;32;33706;-61
2023/06/26 08:48:04;;;;;;;10.23;4.87;;;;;;;27.97;38.48;99464.78;4356790;32;34116;-61
2023/06/26 08:50:34;;;;;;;9.25;4.68;;;;;;;27.91;39.17;99466.53;4373703;32;33436;-61
2023/06/26 08:53:09;;;;;;;8.57;5.68;;;;;;;27.90;40.26;99475.87;4375035;32;33625;-61
2023/06/26 08:55:38;;;;;;;9.35;4.80;;;;;;;27.88;39.97;99472.50;4356692;32;34392;-61
2023/06/26 08:58:06;;;;;;;8.25;5.03;;;;;;;28.05;39.38;99472.66;4323268;33;33734;-61
2023/06/26 09:00:34;;;;;;;7.72;4.25;;;;;;;28.10;39.66;99475.56;4308211;33;32940;-62
2023/06/26 09:03:03;;;;;;;6.97;3.90;;;;;;;28.36;38.60;99468.78;4318522;33;34999;-61
2023/06/26 09:05:31;;;;;;;10.80;5.35;;;;;;;28.59;38.51;99472.66;4323294;33;33759;-60
2023/06/26 09:07:59;;;;;;;6.65;4.00;;;;;;;28.39;37.37;99460.06;4316987;33;35011;-60
2023/06/26 09:10:27;;;;;;;6.50;3.97;;;;;;;28.88;37.23;99466.19;4314838;33;34543;-62
2023/06/26 09:12:57;;;;;;;10.45;4.68;;;;;;;28.96;37.37;99465.00;4322247;33;33786;-61
2023/06/26 09:15:24;;;;;;;12.80;5.15;;;;;;;28.87;38.40;99461.75;4315580;33;33765;-61
2023/06/26 09:17:56;;;;;;;8.65;4.95;;;;;;;28.60;38.39;99463.31;4310934;33;34024;-62
2023/06/26 09:20:27;;;;;;;9.27;4.85;;;;;;;28.24;38.25;99460.50;4319356;33;33633;-61
2023/06/26 09:22:56;;;;;;;7.47;5.18;;;;;;;28.20;38.60;99464.81;4314020;33;33491;-60
2023/06/26 09:25:23;;;;;;;9.73;5.32;;;;;;;28.61;38.56;99468.59;4320336;33;34043;-60
2023/06/26 09:27:52;;;;;;;7.72;4.60;;;;;;;28.92;38.25;99461.03;4287807;33;33731;-60
2023/06/26 09:30:20;;;;;;;9.27;5.00;;;;;;;29.29;36.94;99467.09;4280816;33;33221;-60
2023/06/26 09:32:48;;;;;;;10.77;5.03;;;;;;;29.29;36.29;99467.09;4292828;33;34775;-60
2023/06/26 09:35:16;;;;;;;7.85;4.93;;;;;;;29.51;35.24;99467.28;4302871;33;33751;-60
2023/06/26 09:37:44;;;;;;;9.18;5.90;;;;;;;28.89;36.12;99453.25;4328554;33;34057;-60
2023/06/26 09:40:13;;;;;;;8.38;5.40;;;;;;;29.71;35.92;99459.44;4327650;33;33269;-60
2023/06/26 09:42:41;;;;;;;9.68;5.60;;;;;;;29.51;35.73;99459.00;4327402;33;35341;-60
2023/06/26 09:45:18;;;;;;;9.68;6.00;;;;;;;29.62;35.36;99455.38;4326191;33;35520;-60
2023/06/26 09:47:45;;;;;;;7.60;4.35;;;;;;;29.96;35.34;99457.41;4319551;33;34619;-60
2023/06/26 09:50:23;;;;;;;11.40;6.50;;;;;;;30.00;36.10;99459.41;4326943;33;33368;-60
2023/06/26 09:52:52;;;;;;;9.32;5.40;;;;;;;29.79;36.45;99452.69;4324481;33;33598;-60
2023/06/26 09:55:21;;;;;;;9.40;5.57;;;;;;;29.68;36.03;99448.06;4319503;33;34875;-61
2023/06/26 09:57:52;;;;;;;8.25;5.62;;;;;;;30.35;35.22;99445.41;4324101;32;33985;-61
2023/06/26 10:00:20;;;;;;;9.77;6.05;;;;;;;30.45;34.73;99441.12;4354968;32;34463;-61
2023/06/26 10:02:47;;;;;;;6.55;4.30;;;;;;;30.17;35.93;99435.41;4366841;32;33619;-61
2023/06/26 10:05:15;;;;;;;8.32;4.95;;;;;;;30.63;34.79;99436.19;4358806;32;34284;-61
2023/06/26 10:07:43;;;;;;;11.20;5.15;;;;;;;30.47;35.14;99441.72;4367292;32;35258;-61
2023/06/26 10:10:11;;;;;;;8.60;5.00;;;;;;;29.96;35.09;99440.84;4351673;32;34682;-61
2023/06/26 10:12:39;;;;;;;8.65;6.05;;;;;;;30.36;34.75;99438.78;4355953;32;34090;-61
2023/06/26 10:15:06;;;;;;;8.77;5.55;;;;;;;30.51;33.70;99438.19;4353343;32;34050;-66
2023/06/26 10:17:36;;;;;;;8.65;4.87;;;;;;;29.53;35.86;99444.97;4347154;32;32427;-61
2023/06/26 10:20:06;;;;;;;7.25;4.97;;;;;;;30.37;33.97;99429.44;4355659;32;34894;-61
2023/06/26 10:22:40;;;;;;;7.00;4.50;;;;;;;30.14;34.91;99435.94;4357301;32;33515;-61
2023/06/26 10:25:09;;;;;;;6.13;3.73;;;;;;;30.83;33.81;99427.38;4359463;32;33860;-61
2023/06/26 10:27:40;;;;;;;6.53;3.75;;;;;;;30.90;34.18;99429.94;4344372;32;35049;-61
2023/06/26 10:30:12;;;;;;;9.57;5.00;;;;;;;30.55;33.68;99427.47;4360961;32;33533;-61
2023/06/26 10:32:40;;;;;;;6.62;4.37;;;;;;;31.11;33.71;99433.84;4347972;32;33662;-61
2023/06/26 10:35:10;;;;;;;7.15;4.82;;;;;;;31.43;32.79;99428.44;4368695;32;33578;-60
2023/06/26 10:37:50;;;;;;;15.93;5.78;;;;;;;31.48;31.95;99433.19;4361517;32;34981;-61
2023/06/26 10:40:25;;;;;;;7.10;4.97;;;;;;;31.66;31.83;99430.06;4356400;32;34803;-61
2023/06/26 10:43:07;;;;;;;7.18;4.57;;;;;;;31.63;32.67;99429.75;4366428;32;34967;-61
2023/06/26 10:45:36;;;;;;;7.20;4.43;;;;;;;31.93;31.99;99426.47;4365882;32;33828;-61
2023/06/26 10:48:04;;;;;;;6.57;4.68;;;;;;;31.75;32.43;99431.28;4365109;32;35054;-62
2023/06/26 10:50:32;;;;;;;6.97;4.93;;;;;;;31.92;31.11;99430.34;4361842;32;33416;-61
2023/06/26 10:53:25;;;;;;;8.20;5.03;;;;;;;31.62;32.30;99428.94;4369922;32;34002;-62
2023/06/26 10:56:00;;;;;;;9.05;4.97;;;;;;;31.40;32.45;99428.97;4363830;32;35355;-61
2023/06/26 10:58:41;;;;;;;9.10;5.87;;;;;;;31.40;32.16;99428.13;4361258;32;35322;-62
2023/06/26 11:01:23;;;;;;;8.68;5.75;;;;;;;30.69;33.48;99434.34;4366828;32;33466;-62
2023/06/26 11:03:57;;;;;;;9.48;4.82;;;;;;;31.15;33.04;99423.94;4359596;32;34958;-61
2023/06/26 11:06:24;;;;;;;8.60;4.37;;;;;;;31.01;33.46;99430.91;4359000;32;35237;-61
2023/06/26 11:08:55;;;;;;;7.12;4.90;;;;;;;31.42;32.26;99428.69;4374775;32;33682;-60
2023/06/26 11:11:51;;;;;;;7.00;4.62;;;;;;;31.54;31.79;99427.44;4361691;32;33675;-60
2023/06/26 11:14:20;;;;;;;6.30;4.10;;;;;;;31.02;33.18;99424.31;4370121;32;34525;-60
2023/06/26 11:16:48;;;;;;;7.12;4.55;;;;;;;31.01;32.92;99428.16;4363905;32;35047;-60
2023/06/26 11:19:18;;;;;;;6.85;4.22;;;;;;;31.39;32.48;99424.50;4367826;32;33938;-60
2023/06/26 11:21:46;;;;;;;7.70;4.25;;;;;;;31.02;32.84;99413.25;4366148;32;34506;-60
2023/06/26 11:24:13;;;;;;;7.95;4.78;;;;;;;30.80;32.82;99425.12;4365014;32;33520;-60
2023/06/26 11:26:42;;;;;;;7.60;4.82;;;;;;;31.29;31.69;99418.81;4367744;32;32683;-60
2023/06/26 11:29:11;;;;;;;9.45;4.55;;;;;;;31.21;31.50;99411.84;4372701;32;33981;-60
2023/06/26 11:31:40;;;;;;;7.28;4.43;;;;;;;31.53;30.23;99411.12;4368832;32;33760;-61
2023/06/26 11:34:13;;;;;;;7.07;4.40;;;;;;;31.10;31.68;99410.03;4368891;32;33702;-60
2023/06/26 11:36:44;;;;;;;7.20;4.35;;;;;;;31.18;31.04;99404.06;4368901;32;35296;-60
2023/06/26 11:39:11;;;;;;;9.07;5.10;;;;;;;31.08;31.91;99406.72;4359768;32;34936;-60
2023/06/26 11:41:40;;;;;;;7.07;4.78;;;;;;;31.42;31.58;99409.34;4363588;32;32234;-60